Portada
METAR-TAF:

METAR-TAF

Aeropuertos :

Aeropuerto Internacional del Caribe Santiago Mariño

Isla de Margarita, Venezuela

latitud: 10-55N, longitud: 063-59W, altitud: 23 m

Observación

El informe se hizo hace 50 minutos, a las 05:00 UTC
Temperatura 24°C
Humedad 100%
Presión 1014 hPa
Visibilidad 10 km o más
Escasas nubes a una altura de 1000 ft

METAR: SVMG 250500Z /////KT 9999 FEW010 24/24 Q1014 NOSIG

Hora: 01:50 (05:50 UTC)

Pronóstico

El informe se hizo hace 1 hora y 50 minutos, a las 04:00 UTC
Pronóstico válido del 25 a las 06 UTC al 26 a las 06 UTC
Viento 2 kt del norte
Visibilidad 10 km o más
Nubes dispersas a una altura de 1600 ft
Evolucionando progresivamente
del 25 a las 06 UTC al 25 a las 10 UTC
Viento 1 kt del suroeste
Escasas nubes a una altura de 1600 ft

TAF: SVMG 250400Z 2506/2606 36002KT 9999 SCT016 TX30/18Z TN25/05Z BECMG 2506/2510 23001KT FEW016

Observaciones y pronósticos meteorológicos de más de 4000 aeropuertos (mensajes METAR y TAF).

Los puntos amarillos y rojos representan las estaciones disponibles.

Ponga el ratón en el punto deseado para ver el nombre de la estación.

Haga clic para ver las observaciones y los pronósticos meteorológicos.

Para cambiar el mapa : haga clic en los botones verdes con una cruz de color negro para hacer un zoom, en el botón verde con un guión para alejar o en las flechas verdes para mapas adyacentes.


METAR-TAF: